Cumberland, WI

11:16 PM CST on February 09, 2016 (GMT -0600)
Cumberland Municipal

Weather History for KUBE - August, 2013

Change the Weather History Date:

Friday, August 2, 2013

  Actual Average (KRPD) Record (KRPD)
Temperature  
Mean Temperature 61 °F -  
Max Temperature 71 °F 78 °F 91 °F (2005)
Min Temperature 51 °F 56 °F 48 °F (1996)
Degree Days  
Heating Degree Days 4    
Growing Degree Days 11 (Base 50)    
Moisture  
Dew Point 51 °F    
Average Humidity 71    
Maximum Humidity 100    
Minimum Humidity 35    
Precipitation  
Precipitation 0.00 in - - ()
Sea Level Pressure  
Sea Level Pressure 29.93 in    
Wind  
Wind Speed 5 mph (NW)    
Max Wind Speed 15 mph    
Max Gust Speed 18 mph    
Visibility 10 miles    
Events      
Averages and records for this station are not official NWS values.
T = Trace of Precipitation, MM = Missing Value Source: NWS Daily Summary

Daily Weather History Graph

Daily Weather History Graph

Search for Another Location

Airport or City:

Trip Planner

Search our weather history database for the weather conditions in past years. The results will help you decide how hot, cold, wet, or windy it might be!

Date:

Astronomy

Aug. 02, 2013 Rise Set
Actual Time 5:53 AM CDT 8:34 PM CDT
Civil Twilight 5:19 AM CDT 9:08 PM CDT
Nautical Twilight 4:36 AM CDT 9:50 PM CDT
Astronomical Twilight 3:46 AM CDT 10:40 PM CDT
Moon 2:12 AM CDT (8/2) 5:34 PM CDT (8/2)
Length of Visible Light 15h 48m
Length of Day
14h 41m
Waning Crescent, 15% of the Moon is Illuminated
Aug 2
Waning Crescent
Aug 6
New
Aug 14
First Quarter
Aug 20
Full
Aug 28
Last Quarter

Hourly Weather History & Observations

Time (CDT) Temp. Dew Point Humidity Pressure Visibility Wind Dir Wind Speed Gust Speed Precip Events Conditions
12:15 AM 55.4 °F 53.6 °F 94% 29.88 in 10.0 mi Calm Calm - N/A   Clear
12:35 AM 55.4 °F 53.6 °F 94% 29.87 in 10.0 mi Calm Calm - N/A   Clear
12:55 AM 55.4 °F 53.6 °F 94% 29.87 in 10.0 mi Calm Calm - N/A   Clear
1:15 AM 53.6 °F 51.8 °F 94% 29.86 in 10.0 mi Calm Calm - N/A   Clear
1:35 AM 53.6 °F 51.8 °F 94% 29.86 in 10.0 mi Calm Calm - N/A   Clear
1:55 AM 53.6 °F 53.6 °F 100% 29.85 in 10.0 mi Calm Calm - N/A   Clear
2:15 AM 51.8 °F 51.8 °F 100% 29.84 in 10.0 mi Calm Calm - N/A   Clear
2:35 AM 51.8 °F 51.8 °F 100% 29.85 in 7.0 mi SW 4.6 mph - N/A   Clear
2:55 AM 51.8 °F 51.8 °F 100% 29.85 in 10.0 mi Calm Calm - N/A   Clear
3:15 AM 53.6 °F 51.8 °F 94% 29.85 in 10.0 mi Calm Calm - N/A   Clear
3:35 AM 53.6 °F 51.8 °F 94% 29.85 in 10.0 mi NW 4.6 mph - N/A   Clear
3:55 AM 55.4 °F 53.6 °F 94% 29.86 in 10.0 mi NW 4.6 mph - N/A   Clear
4:15 AM 55.4 °F 53.6 °F 94% 29.86 in 10.0 mi NW 6.9 mph - N/A   Clear
4:35 AM 55.4 °F 53.6 °F 94% 29.87 in 10.0 mi NNW 6.9 mph - N/A   Clear
4:55 AM 55.4 °F 51.8 °F 88% 29.87 in 10.0 mi North 5.8 mph - N/A   Clear
5:15 AM 53.6 °F 51.8 °F 94% 29.87 in 10.0 mi NW 5.8 mph - N/A   Clear
5:35 AM 51.8 °F 50.0 °F 94% 29.88 in 10.0 mi NW 4.6 mph - N/A   Clear
5:55 AM 55.4 °F 51.8 °F 88% 29.88 in 10.0 mi NW 5.8 mph - N/A   Clear
6:15 AM 55.4 °F 51.8 °F 88% 29.88 in 10.0 mi NW 4.6 mph - N/A   Clear
6:35 AM 55.4 °F 51.8 °F 88% 29.89 in 10.0 mi WNW 5.8 mph - N/A   Clear
6:55 AM 55.4 °F 53.6 °F 94% 29.89 in 10.0 mi NW 6.9 mph - N/A   Clear
7:15 AM 57.2 °F 53.6 °F 88% 29.89 in 10.0 mi NNW 8.1 mph - N/A   Clear
7:35 AM 59.0 °F 53.6 °F 82% 29.90 in 10.0 mi WNW 5.8 mph - N/A   Clear
7:55 AM 59.0 °F 55.4 °F 88% 29.91 in 10.0 mi NW 6.9 mph - N/A   Clear
8:15 AM 60.8 °F 55.4 °F 82% 29.91 in 10.0 mi NW 8.1 mph - N/A   Clear
8:35 AM 60.8 °F 55.4 °F 82% 29.91 in 10.0 mi NNW 5.8 mph - N/A   Clear
8:55 AM 62.6 °F 55.4 °F 77% 29.92 in 10.0 mi NNW 10.4 mph - N/A   Clear
9:15 AM 64.4 °F 55.4 °F 73% 29.92 in 10.0 mi NNW 10.4 mph - N/A   Clear
9:35 AM 64.4 °F 53.6 °F 68% 29.93 in 10.0 mi North 11.5 mph - N/A   Clear
9:55 AM 66.2 °F 53.6 °F 64% 29.93 in 10.0 mi North 8.1 mph - N/A   Clear
10:15 AM 66.2 °F 53.6 °F 64% 29.93 in 10.0 mi North 8.1 mph - N/A   Clear
10:35 AM 68.0 °F 53.6 °F 60% 29.93 in 10.0 mi North 10.4 mph - N/A   Clear
10:55 AM 68.0 °F 53.6 °F 60% 29.93 in 10.0 mi NNE 9.2 mph - N/A   Scattered Clouds
11:15 AM 68.0 °F 51.8 °F 56% 29.93 in 10.0 mi North 5.8 mph - N/A   Scattered Clouds
11:35 AM 68.0 °F 51.8 °F 56% 29.94 in 10.0 mi NNW 10.4 mph - N/A   Scattered Clouds
11:55 AM 68.0 °F 53.6 °F 60% 29.94 in 10.0 mi NNW 8.1 mph - N/A   Mostly Cloudy
12:15 PM 68.0 °F 50.0 °F 52% 29.94 in 10.0 mi NNW 9.2 mph - N/A   Mostly Cloudy
12:35 PM 69.8 °F 50.0 °F 49% 29.94 in 10.0 mi NW 10.4 mph - N/A   Mostly Cloudy
12:55 PM 71.6 °F 50.0 °F 46% 29.94 in 10.0 mi NNW 8.1 mph 17.3 mph N/A   Mostly Cloudy
1:15 PM 69.8 °F 50.0 °F 49% 29.94 in 10.0 mi NNW 10.4 mph - N/A   Mostly Cloudy
1:35 PM 71.6 °F 48.2 °F 43% 29.94 in 10.0 mi NNW 8.1 mph - N/A   Scattered Clouds
1:55 PM 71.6 °F 46.4 °F 41% 29.95 in 10.0 mi NW 15.0 mph 18.4 mph N/A   Scattered Clouds
2:15 PM 71.6 °F 46.4 °F 41% 29.95 in 10.0 mi NW 11.5 mph - N/A   Scattered Clouds
2:35 PM 71.6 °F 46.4 °F 41% 29.95 in 10.0 mi NNW 10.4 mph - N/A   Scattered Clouds
2:55 PM 71.6 °F 46.4 °F 41% 29.95 in 10.0 mi North 12.7 mph 18.4 mph N/A   Mostly Cloudy
3:15 PM 71.6 °F 42.8 °F 35% 29.95 in 10.0 mi NW 8.1 mph 17.3 mph N/A   Scattered Clouds
3:35 PM 71.6 °F 44.6 °F 38% 29.95 in 10.0 mi NW 8.1 mph 17.3 mph N/A   Clear
3:55 PM 71.6 °F 46.4 °F 41% 29.95 in 10.0 mi NNW 10.4 mph - N/A   Scattered Clouds
4:15 PM 71.6 °F 46.4 °F 41% 29.95 in 10.0 mi NW 10.4 mph - N/A   Scattered Clouds
4:35 PM 71.6 °F 48.2 °F 43% 29.95 in 10.0 mi NW 8.1 mph - N/A   Clear
4:55 PM 71.6 °F 46.4 °F 41% 29.96 in 10.0 mi NNW 10.4 mph - N/A   Clear
5:15 PM 71.6 °F 46.4 °F 41% 29.96 in 10.0 mi NW 6.9 mph - N/A   Clear
5:35 PM 71.6 °F 46.4 °F 41% 29.95 in 10.0 mi NW 8.1 mph - N/A   Clear
5:55 PM 69.8 °F 48.2 °F 46% 29.96 in 10.0 mi NNW 6.9 mph - N/A   Clear
6:15 PM 69.8 °F 48.2 °F 46% 29.96 in 10.0 mi NNW 8.1 mph - N/A   Clear
6:35 PM 69.8 °F 50.0 °F 49% 29.96 in 10.0 mi NW 6.9 mph - N/A   Clear
6:55 PM 68.0 °F 50.0 °F 52% 29.97 in 10.0 mi NW 5.8 mph - N/A   Clear
7:15 PM 68.0 °F 50.0 °F 52% 29.97 in 10.0 mi NW 4.6 mph - N/A   Clear
7:35 PM 69.8 °F 51.8 °F 53% 29.98 in 10.0 mi NNW 5.8 mph - N/A   Clear
7:55 PM 66.2 °F 51.8 °F 60% 29.98 in 10.0 mi NNW 5.8 mph - N/A   Clear
8:15 PM 64.4 °F 51.8 °F 64% 29.99 in 10.0 mi NW 3.5 mph - N/A   Clear
8:35 PM 62.6 °F 51.8 °F 68% 29.99 in 10.0 mi NW 3.5 mph - N/A   Clear
8:55 PM 60.8 °F 51.8 °F 72% 30.00 in 10.0 mi WNW 4.6 mph - N/A   Clear
9:15 PM 59.0 °F 51.8 °F 77% 30.01 in 10.0 mi NW 4.6 mph - N/A   Clear
9:35 PM 57.2 °F 51.8 °F 82% 30.01 in 10.0 mi NW 3.5 mph - N/A   Clear
9:55 PM 55.4 °F 51.8 °F 88% 30.01 in 10.0 mi NW 3.5 mph - N/A   Clear
10:15 PM 53.6 °F 51.8 °F 94% 30.02 in 10.0 mi Calm Calm - N/A   Clear
10:35 PM 53.6 °F 51.8 °F 94% 30.03 in 10.0 mi Calm Calm - N/A   Clear
10:55 PM 53.6 °F 50.0 °F 88% 30.03 in 10.0 mi Calm Calm - N/A   Scattered Clouds
11:15 PM 53.6 °F 50.0 °F 88% 30.03 in 10.0 mi Calm Calm - N/A   Mostly Cloudy
11:35 PM 53.6 °F 50.0 °F 88% 30.03 in 10.0 mi WNW 3.5 mph - N/A   Mostly Cloudy
11:55 PM 59.0 °F 53.6 °F 82% 30.04 in 10.0 mi NW 5.8 mph - N/A   Overcast